sensor_id;sensor_type;location;lat;lon;timestamp;P1;durP1;ratioP1;P2;durP2;ratioP2
68229;SDS011;55048;52.220;5.160;2023-05-07T00:00:37;29.85;;;19.25;;
68229;SDS011;55048;52.220;5.160;2023-05-07T00:03:03;29.75;;;18.95;;
68229;SDS011;55048;52.220;5.160;2023-05-07T00:05:28;25.38;;;18.95;;
68229;SDS011;55048;52.220;5.160;2023-05-07T00:07:54;32.15;;;17.77;;
68229;SDS011;55048;52.220;5.160;2023-05-07T00:10:19;24.83;;;17.45;;
68229;SDS011;55048;52.220;5.160;2023-05-07T00:12:45;26.05;;;16.20;;
68229;SDS011;55048;52.220;5.160;2023-05-07T00:15:10;26.27;;;16.23;;
68229;SDS011;55048;52.220;5.160;2023-05-07T00:17:36;20.85;;;16.42;;
68229;SDS011;55048;52.220;5.160;2023-05-07T00:20:03;26.75;;;16.40;;
68229;SDS011;55048;52.220;5.160;2023-05-07T00:22:30;24.63;;;16.52;;
68229;SDS011;55048;52.220;5.160;2023-05-07T00:24:57;24.45;;;15.75;;
68229;SDS011;55048;52.220;5.160;2023-05-07T00:27:23;19.88;;;14.80;;
68229;SDS011;55048;52.220;5.160;2023-05-07T00:29:50;22.35;;;15.32;;
68229;SDS011;55048;52.220;5.160;2023-05-07T00:32:18;22.00;;;14.65;;
68229;SDS011;55048;52.220;5.160;2023-05-07T00:34:44;17.80;;;14.32;;
68229;SDS011;55048;52.220;5.160;2023-05-07T00:37:10;23.20;;;14.95;;
68229;SDS011;55048;52.220;5.160;2023-05-07T00:39:37;17.92;;;13.65;;
68229;SDS011;55048;52.220;5.160;2023-05-07T00:42:02;19.10;;;14.07;;
68229;SDS011;55048;52.220;5.160;2023-05-07T00:44:28;20.73;;;13.52;;
68229;SDS011;55048;52.220;5.160;2023-05-07T00:46:55;16.92;;;13.10;;
68229;SDS011;55048;52.220;5.160;2023-05-07T00:49:23;17.27;;;12.57;;
68229;SDS011;55048;52.220;5.160;2023-05-07T00:51:58;16.30;;;12.70;;
68229;SDS011;55048;52.220;5.160;2023-05-07T00:54:25;16.60;;;12.38;;
68229;SDS011;55048;52.220;5.160;2023-05-07T00:56:51;16.75;;;12.20;;
68229;SDS011;55048;52.220;5.160;2023-05-07T00:59:17;14.70;;;11.82;;
68229;SDS011;55048;52.220;5.160;2023-05-07T01:01:45;14.05;;;10.90;;
68229;SDS011;55048;52.220;5.160;2023-05-07T01:04:10;14.35;;;12.05;;
68229;SDS011;55048;52.220;5.160;2023-05-07T01:06:36;17.77;;;10.75;;
68229;SDS011;55048;52.220;5.160;2023-05-07T01:09:02;16.05;;;10.98;;
68229;SDS011;55048;52.220;5.160;2023-05-07T01:11:29;15.95;;;10.98;;
68229;SDS011;55048;52.220;5.160;2023-05-07T01:13:55;16.00;;;11.15;;
68229;SDS011;55048;52.220;5.160;2023-05-07T01:16:23;15.45;;;10.85;;
68229;SDS011;55048;52.220;5.160;2023-05-07T01:18:49;15.80;;;11.05;;
68229;SDS011;55048;52.220;5.160;2023-05-07T01:21:15;12.90;;;10.75;;
68229;SDS011;55048;52.220;5.160;2023-05-07T01:23:42;12.18;;;10.88;;
68229;SDS011;55048;52.220;5.160;2023-05-07T01:26:10;13.32;;;9.80;;
68229;SDS011;55048;52.220;5.160;2023-05-07T01:28:35;11.55;;;10.35;;
68229;SDS011;55048;52.220;5.160;2023-05-07T01:31:02;18.20;;;10.80;;
68229;SDS011;55048;52.220;5.160;2023-05-07T01:33:32;19.20;;;10.07;;
68229;SDS011;55048;52.220;5.160;2023-05-07T01:36:00;12.05;;;10.57;;
68229;SDS011;55048;52.220;5.160;2023-05-07T01:38:28;13.25;;;10.55;;
68229;SDS011;55048;52.220;5.160;2023-05-07T01:40:55;12.52;;;10.88;;
68229;SDS011;55048;52.220;5.160;2023-05-07T01:43:24;14.75;;;9.32;;
68229;SDS011;55048;52.220;5.160;2023-05-07T01:45:50;12.77;;;9.13;;
68229;SDS011;55048;52.220;5.160;2023-05-07T01:48:16;14.18;;;9.95;;
68229;SDS011;55048;52.220;5.160;2023-05-07T01:50:43;11.48;;;9.52;;
68229;SDS011;55048;52.220;5.160;2023-05-07T01:53:09;13.13;;;9.10;;
68229;SDS011;55048;52.220;5.160;2023-05-07T01:55:35;14.98;;;8.95;;
68229;SDS011;55048;52.220;5.160;2023-05-07T01:58:02;13.52;;;9.10;;
68229;SDS011;55048;52.220;5.160;2023-05-07T02:00:29;12.30;;;9.00;;
68229;SDS011;55048;52.220;5.160;2023-05-07T02:02:54;10.80;;;9.30;;
68229;SDS011;55048;52.220;5.160;2023-05-07T02:05:29;14.48;;;9.43;;
68229;SDS011;55048;52.220;5.160;2023-05-07T02:08:00;12.98;;;8.82;;
68229;SDS011;55048;52.220;5.160;2023-05-07T02:10:27;14.02;;;9.38;;
68229;SDS011;55048;52.220;5.160;2023-05-07T02:12:52;13.68;;;9.65;;
68229;SDS011;55048;52.220;5.160;2023-05-07T02:15:18;15.70;;;9.30;;
68229;SDS011;55048;52.220;5.160;2023-05-07T02:18:03;11.45;;;8.93;;
68229;SDS011;55048;52.220;5.160;2023-05-07T02:20:31;12.68;;;8.80;;
68229;SDS011;55048;52.220;5.160;2023-05-07T02:22:57;11.10;;;8.50;;
68229;SDS011;55048;52.220;5.160;2023-05-07T02:25:24;9.23;;;8.30;;
68229;SDS011;55048;52.220;5.160;2023-05-07T02:27:50;12.10;;;9.50;;
68229;SDS011;55048;52.220;5.160;2023-05-07T02:30:16;9.57;;;8.68;;
68229;SDS011;55048;52.220;5.160;2023-05-07T02:32:42;12.82;;;8.63;;
68229;SDS011;55048;52.220;5.160;2023-05-07T02:35:08;10.75;;;9.00;;
68229;SDS011;55048;52.220;5.160;2023-05-07T02:37:33;11.93;;;9.70;;
68229;SDS011;55048;52.220;5.160;2023-05-07T02:39:59;12.32;;;9.27;;
68229;SDS011;55048;52.220;5.160;2023-05-07T02:42:25;10.68;;;9.27;;
68229;SDS011;55048;52.220;5.160;2023-05-07T02:44:50;10.10;;;9.10;;
68229;SDS011;55048;52.220;5.160;2023-05-07T02:47:16;12.40;;;9.05;;
68229;SDS011;55048;52.220;5.160;2023-05-07T02:49:43;11.60;;;9.10;;
68229;SDS011;55048;52.220;5.160;2023-05-07T02:52:09;13.27;;;9.45;;
68229;SDS011;55048;52.220;5.160;2023-05-07T02:54:34;10.45;;;9.35;;
68229;SDS011;55048;52.220;5.160;2023-05-07T02:57:00;12.57;;;9.90;;
68229;SDS011;55048;52.220;5.160;2023-05-07T02:59:26;14.27;;;9.32;;
68229;SDS011;55048;52.220;5.160;2023-05-07T03:01:51;12.93;;;9.88;;
68229;SDS011;55048;52.220;5.160;2023-05-07T03:04:17;14.13;;;10.05;;
68229;SDS011;55048;52.220;5.160;2023-05-07T03:06:43;14.85;;;9.13;;
68229;SDS011;55048;52.220;5.160;2023-05-07T03:09:08;12.80;;;10.02;;
68229;SDS011;55048;52.220;5.160;2023-05-07T03:11:34;15.73;;;10.45;;
68229;SDS011;55048;52.220;5.160;2023-05-07T03:14:01;11.15;;;8.75;;
68229;SDS011;55048;52.220;5.160;2023-05-07T03:16:27;13.25;;;9.98;;
68229;SDS011;55048;52.220;5.160;2023-05-07T03:18:53;15.02;;;9.75;;
68229;SDS011;55048;52.220;5.160;2023-05-07T03:21:18;12.57;;;9.43;;
68229;SDS011;55048;52.220;5.160;2023-05-07T03:23:44;15.45;;;10.15;;
68229;SDS011;55048;52.220;5.160;2023-05-07T03:26:10;11.88;;;9.95;;
68229;SDS011;55048;52.220;5.160;2023-05-07T03:28:36;16.45;;;9.70;;
68229;SDS011;55048;52.220;5.160;2023-05-07T03:31:04;14.65;;;10.38;;
68229;SDS011;55048;52.220;5.160;2023-05-07T03:33:32;13.30;;;9.75;;
68229;SDS011;55048;52.220;5.160;2023-05-07T03:35:58;12.40;;;9.85;;
68229;SDS011;55048;52.220;5.160;2023-05-07T03:38:25;15.02;;;9.82;;
68229;SDS011;55048;52.220;5.160;2023-05-07T03:40:50;13.05;;;10.15;;
68229;SDS011;55048;52.220;5.160;2023-05-07T03:43:16;14.57;;;10.30;;
68229;SDS011;55048;52.220;5.160;2023-05-07T03:45:47;14.32;;;10.85;;
68229;SDS011;55048;52.220;5.160;2023-05-07T03:48:20;13.88;;;10.95;;
68229;SDS011;55048;52.220;5.160;2023-05-07T03:50:47;13.80;;;11.38;;
68229;SDS011;55048;52.220;5.160;2023-05-07T03:53:15;13.85;;;11.00;;
68229;SDS011;55048;52.220;5.160;2023-05-07T03:55:40;15.35;;;10.93;;
68229;SDS011;55048;52.220;5.160;2023-05-07T03:58:06;15.05;;;11.32;;
68229;SDS011;55048;52.220;5.160;2023-05-07T04:00:31;13.43;;;11.57;;
68229;SDS011;55048;52.220;5.160;2023-05-07T04:02:59;14.50;;;11.13;;
68229;SDS011;55048;52.220;5.160;2023-05-07T04:05:28;19.13;;;11.75;;
68229;SDS011;55048;52.220;5.160;2023-05-07T04:07:58;17.50;;;11.77;;
68229;SDS011;55048;52.220;5.160;2023-05-07T04:10:31;14.07;;;11.82;;
68229;SDS011;55048;52.220;5.160;2023-05-07T04:13:00;13.80;;;11.95;;
68229;SDS011;55048;52.220;5.160;2023-05-07T04:15:26;17.73;;;12.40;;
68229;SDS011;55048;52.220;5.160;2023-05-07T04:17:55;19.17;;;13.07;;
68229;SDS011;55048;52.220;5.160;2023-05-07T04:22:53;17.42;;;11.50;;
68229;SDS011;55048;52.220;5.160;2023-05-07T04:25:19;13.80;;;10.95;;
68229;SDS011;55048;52.220;5.160;2023-05-07T04:27:44;18.30;;;12.45;;
68229;SDS011;55048;52.220;5.160;2023-05-07T04:30:11;16.30;;;12.25;;
68229;SDS011;55048;52.220;5.160;2023-05-07T04:32:40;16.63;;;12.30;;
68229;SDS011;55048;52.220;5.160;2023-05-07T04:35:09;18.58;;;12.45;;
68229;SDS011;55048;52.220;5.160;2023-05-07T04:37:35;16.67;;;12.27;;
68229;SDS011;55048;52.220;5.160;2023-05-07T04:40:01;15.80;;;12.32;;
68229;SDS011;55048;52.220;5.160;2023-05-07T04:42:28;15.80;;;12.18;;
68229;SDS011;55048;52.220;5.160;2023-05-07T04:44:54;13.57;;;11.48;;
68229;SDS011;55048;52.220;5.160;2023-05-07T04:47:21;16.00;;;12.23;;
68229;SDS011;55048;52.220;5.160;2023-05-07T04:49:49;14.77;;;11.52;;
68229;SDS011;55048;52.220;5.160;2023-05-07T04:52:15;16.70;;;11.63;;
68229;SDS011;55048;52.220;5.160;2023-05-07T04:54:50;20.85;;;12.23;;
68229;SDS011;55048;52.220;5.160;2023-05-07T04:57:45;15.50;;;11.30;;
68229;SDS011;55048;52.220;5.160;2023-05-07T05:00:14;14.70;;;11.15;;
68229;SDS011;55048;52.220;5.160;2023-05-07T05:02:41;14.35;;;10.82;;
68229;SDS011;55048;52.220;5.160;2023-05-07T05:05:07;14.07;;;10.45;;
68229;SDS011;55048;52.220;5.160;2023-05-07T05:07:33;13.65;;;10.00;;
68229;SDS011;55048;52.220;5.160;2023-05-07T05:09:59;13.30;;;9.10;;
68229;SDS011;55048;52.220;5.160;2023-05-07T05:12:24;12.75;;;9.50;;
68229;SDS011;55048;52.220;5.160;2023-05-07T05:14:50;15.63;;;10.15;;
68229;SDS011;55048;52.220;5.160;2023-05-07T05:17:16;12.02;;;9.82;;
68229;SDS011;55048;52.220;5.160;2023-05-07T05:19:41;11.88;;;9.32;;
68229;SDS011;55048;52.220;5.160;2023-05-07T05:22:07;11.80;;;9.02;;
68229;SDS011;55048;52.220;5.160;2023-05-07T05:24:32;11.82;;;9.70;;
68229;SDS011;55048;52.220;5.160;2023-05-07T05:26:58;12.90;;;9.25;;
68229;SDS011;55048;52.220;5.160;2023-05-07T05:29:28;11.00;;;9.10;;
68229;SDS011;55048;52.220;5.160;2023-05-07T05:31:53;10.82;;;9.02;;
68229;SDS011;55048;52.220;5.160;2023-05-07T05:34:20;11.43;;;8.80;;
68229;SDS011;55048;52.220;5.160;2023-05-07T05:36:46;12.95;;;9.75;;
68229;SDS011;55048;52.220;5.160;2023-05-07T05:39:13;12.13;;;9.77;;
68229;SDS011;55048;52.220;5.160;2023-05-07T05:41:39;13.60;;;10.10;;
68229;SDS011;55048;52.220;5.160;2023-05-07T05:44:05;11.93;;;10.10;;
68229;SDS011;55048;52.220;5.160;2023-05-07T05:46:31;11.32;;;9.48;;
68229;SDS011;55048;52.220;5.160;2023-05-07T05:48:56;12.98;;;9.43;;
68229;SDS011;55048;52.220;5.160;2023-05-07T05:51:22;13.85;;;9.68;;
68229;SDS011;55048;52.220;5.160;2023-05-07T05:53:48;17.05;;;10.20;;
68229;SDS011;55048;52.220;5.160;2023-05-07T05:56:14;14.18;;;9.82;;
68229;SDS011;55048;52.220;5.160;2023-05-07T05:58:40;15.38;;;9.85;;
68229;SDS011;55048;52.220;5.160;2023-05-07T06:01:07;14.38;;;10.65;;
68229;SDS011;55048;52.220;5.160;2023-05-07T06:03:35;14.30;;;10.25;;
68229;SDS011;55048;52.220;5.160;2023-05-07T06:06:04;15.07;;;11.13;;
68229;SDS011;55048;52.220;5.160;2023-05-07T06:08:30;11.15;;;9.45;;
68229;SDS011;55048;52.220;5.160;2023-05-07T06:10:56;14.05;;;9.88;;
68229;SDS011;55048;52.220;5.160;2023-05-07T06:13:22;14.75;;;9.80;;
68229;SDS011;55048;52.220;5.160;2023-05-07T06:15:49;12.90;;;10.20;;
68229;SDS011;55048;52.220;5.160;2023-05-07T06:18:15;12.93;;;10.40;;
68229;SDS011;55048;52.220;5.160;2023-05-07T06:20:40;14.77;;;10.38;;
68229;SDS011;55048;52.220;5.160;2023-05-07T06:23:10;17.65;;;11.23;;
68229;SDS011;55048;52.220;5.160;2023-05-07T06:25:36;18.00;;;11.05;;
68229;SDS011;55048;52.220;5.160;2023-05-07T06:28:03;14.30;;;10.48;;
68229;SDS011;55048;52.220;5.160;2023-05-07T06:30:30;15.55;;;11.23;;
68229;SDS011;55048;52.220;5.160;2023-05-07T06:32:55;14.35;;;11.02;;
68229;SDS011;55048;52.220;5.160;2023-05-07T06:35:21;17.25;;;12.15;;
68229;SDS011;55048;52.220;5.160;2023-05-07T06:37:47;17.90;;;11.77;;
68229;SDS011;55048;52.220;5.160;2023-05-07T06:40:17;18.75;;;12.75;;
68229;SDS011;55048;52.220;5.160;2023-05-07T06:42:44;14.80;;;12.10;;
68229;SDS011;55048;52.220;5.160;2023-05-07T06:45:36;17.38;;;12.77;;
68229;SDS011;55048;52.220;5.160;2023-05-07T06:48:03;15.13;;;11.38;;
68229;SDS011;55048;52.220;5.160;2023-05-07T06:50:33;16.08;;;12.63;;
68229;SDS011;55048;52.220;5.160;2023-05-07T06:52:59;21.15;;;12.48;;
68229;SDS011;55048;52.220;5.160;2023-05-07T06:55:25;16.98;;;12.60;;
68229;SDS011;55048;52.220;5.160;2023-05-07T06:57:51;20.10;;;13.27;;
68229;SDS011;55048;52.220;5.160;2023-05-07T07:00:18;16.67;;;12.27;;
68229;SDS011;55048;52.220;5.160;2023-05-07T07:02:49;16.55;;;12.98;;
68229;SDS011;55048;52.220;5.160;2023-05-07T07:05:17;16.70;;;13.05;;
68229;SDS011;55048;52.220;5.160;2023-05-07T07:07:42;16.27;;;12.60;;
68229;SDS011;55048;52.220;5.160;2023-05-07T07:10:09;17.73;;;12.75;;
68229;SDS011;55048;52.220;5.160;2023-05-07T07:12:35;14.95;;;12.73;;
68229;SDS011;55048;52.220;5.160;2023-05-07T07:15:00;19.52;;;13.15;;
68229;SDS011;55048;52.220;5.160;2023-05-07T07:17:26;16.23;;;12.82;;
68229;SDS011;55048;52.220;5.160;2023-05-07T07:19:53;16.63;;;13.07;;
68229;SDS011;55048;52.220;5.160;2023-05-07T07:22:19;18.95;;;12.43;;
68229;SDS011;55048;52.220;5.160;2023-05-07T07:24:45;22.10;;;13.98;;
68229;SDS011;55048;52.220;5.160;2023-05-07T07:27:12;17.67;;;13.23;;
68229;SDS011;55048;52.220;5.160;2023-05-07T07:29:38;17.45;;;12.15;;
68229;SDS011;55048;52.220;5.160;2023-05-07T07:32:04;21.05;;;13.35;;
68229;SDS011;55048;52.220;5.160;2023-05-07T07:34:30;18.40;;;13.43;;
68229;SDS011;55048;52.220;5.160;2023-05-07T07:36:56;12.07;;;9.68;;
68229;SDS011;55048;52.220;5.160;2023-05-07T07:39:23;18.38;;;12.88;;
68229;SDS011;55048;52.220;5.160;2023-05-07T07:41:51;15.95;;;12.23;;
68229;SDS011;55048;52.220;5.160;2023-05-07T07:44:17;16.75;;;12.15;;
68229;SDS011;55048;52.220;5.160;2023-05-07T07:46:48;17.42;;;12.57;;
68229;SDS011;55048;52.220;5.160;2023-05-07T07:49:14;15.30;;;12.95;;
68229;SDS011;55048;52.220;5.160;2023-05-07T07:51:41;15.80;;;12.30;;
68229;SDS011;55048;52.220;5.160;2023-05-07T07:54:06;13.95;;;11.80;;
68229;SDS011;55048;52.220;5.160;2023-05-07T07:56:33;15.48;;;12.23;;
68229;SDS011;55048;52.220;5.160;2023-05-07T07:58:59;18.00;;;12.75;;
68229;SDS011;55048;52.220;5.160;2023-05-07T08:01:26;18.17;;;12.68;;
68229;SDS011;55048;52.220;5.160;2023-05-07T08:03:52;16.95;;;12.63;;
68229;SDS011;55048;52.220;5.160;2023-05-07T08:06:18;15.05;;;12.68;;
68229;SDS011;55048;52.220;5.160;2023-05-07T08:08:44;14.25;;;12.75;;
68229;SDS011;55048;52.220;5.160;2023-05-07T08:11:09;18.05;;;13.25;;
68229;SDS011;55048;52.220;5.160;2023-05-07T08:13:35;16.73;;;12.98;;
68229;SDS011;55048;52.220;5.160;2023-05-07T08:16:03;15.50;;;13.57;;
68229;SDS011;55048;52.220;5.160;2023-05-07T08:18:29;17.65;;;14.45;;
68229;SDS011;55048;52.220;5.160;2023-05-07T08:20:56;18.33;;;14.07;;
68229;SDS011;55048;52.220;5.160;2023-05-07T08:23:25;16.48;;;13.82;;
68229;SDS011;55048;52.220;5.160;2023-05-07T08:25:50;17.00;;;13.75;;
68229;SDS011;55048;52.220;5.160;2023-05-07T08:28:17;15.70;;;13.50;;
68229;SDS011;55048;52.220;5.160;2023-05-07T08:30:42;18.00;;;12.88;;
68229;SDS011;55048;52.220;5.160;2023-05-07T08:33:11;15.80;;;13.00;;
68229;SDS011;55048;52.220;5.160;2023-05-07T08:35:36;15.23;;;13.10;;
68229;SDS011;55048;52.220;5.160;2023-05-07T08:38:02;15.05;;;13.50;;
68229;SDS011;55048;52.220;5.160;2023-05-07T08:40:28;14.95;;;13.23;;
68229;SDS011;55048;52.220;5.160;2023-05-07T08:42:55;17.38;;;13.98;;
68229;SDS011;55048;52.220;5.160;2023-05-07T08:45:22;19.58;;;12.98;;
68229;SDS011;55048;52.220;5.160;2023-05-07T08:47:51;17.92;;;14.02;;
68229;SDS011;55048;52.220;5.160;2023-05-07T08:50:22;15.85;;;12.88;;
68229;SDS011;55048;52.220;5.160;2023-05-07T08:52:48;15.48;;;12.18;;
68229;SDS011;55048;52.220;5.160;2023-05-07T08:55:15;12.82;;;11.50;;
68229;SDS011;55048;52.220;5.160;2023-05-07T08:57:42;13.30;;;10.85;;
68229;SDS011;55048;52.220;5.160;2023-05-07T09:00:09;14.65;;;10.90;;
68229;SDS011;55048;52.220;5.160;2023-05-07T09:02:36;13.23;;;10.10;;
68229;SDS011;55048;52.220;5.160;2023-05-07T09:05:02;12.30;;;10.05;;
68229;SDS011;55048;52.220;5.160;2023-05-07T09:07:28;15.32;;;11.48;;
68229;SDS011;55048;52.220;5.160;2023-05-07T09:09:55;12.95;;;9.95;;
68229;SDS011;55048;52.220;5.160;2023-05-07T09:12:22;12.25;;;9.95;;
68229;SDS011;55048;52.220;5.160;2023-05-07T09:14:48;12.68;;;9.65;;
68229;SDS011;55048;52.220;5.160;2023-05-07T09:17:15;9.73;;;8.15;;
68229;SDS011;55048;52.220;5.160;2023-05-07T09:19:41;11.90;;;8.73;;
68229;SDS011;55048;52.220;5.160;2023-05-07T09:22:08;10.90;;;8.70;;
68229;SDS011;55048;52.220;5.160;2023-05-07T09:24:49;11.65;;;8.70;;
68229;SDS011;55048;52.220;5.160;2023-05-07T09:27:17;9.48;;;8.57;;
68229;SDS011;55048;52.220;5.160;2023-05-07T09:29:44;9.82;;;7.80;;
68229;SDS011;55048;52.220;5.160;2023-05-07T09:32:10;10.02;;;8.00;;
68229;SDS011;55048;52.220;5.160;2023-05-07T09:34:36;11.45;;;7.13;;
68229;SDS011;55048;52.220;5.160;2023-05-07T09:37:02;8.23;;;7.32;;
68229;SDS011;55048;52.220;5.160;2023-05-07T09:42:10;9.23;;;7.10;;
68229;SDS011;55048;52.220;5.160;2023-05-07T09:44:38;8.52;;;7.40;;
68229;SDS011;55048;52.220;5.160;2023-05-07T09:47:07;9.35;;;7.53;;
68229;SDS011;55048;52.220;5.160;2023-05-07T09:49:39;9.02;;;8.13;;
68229;SDS011;55048;52.220;5.160;2023-05-07T09:52:08;7.93;;;7.13;;
68229;SDS011;55048;52.220;5.160;2023-05-07T09:54:39;10.70;;;7.68;;
68229;SDS011;55048;52.220;5.160;2023-05-07T09:57:08;8.80;;;7.75;;
68229;SDS011;55048;52.220;5.160;2023-05-07T09:59:36;13.63;;;7.47;;
68229;SDS011;55048;52.220;5.160;2023-05-07T10:02:06;9.48;;;7.07;;
68229;SDS011;55048;52.220;5.160;2023-05-07T10:04:42;9.00;;;7.22;;
68229;SDS011;55048;52.220;5.160;2023-05-07T10:07:09;8.43;;;5.32;;
68229;SDS011;55048;52.220;5.160;2023-05-07T10:09:35;5.13;;;4.60;;
68229;SDS011;55048;52.220;5.160;2023-05-07T10:12:04;5.28;;;4.65;;
68229;SDS011;55048;52.220;5.160;2023-05-07T10:14:31;6.78;;;4.10;;
68229;SDS011;55048;52.220;5.160;2023-05-07T10:16:57;6.75;;;3.97;;
68229;SDS011;55048;52.220;5.160;2023-05-07T10:19:25;5.90;;;3.83;;
68229;SDS011;55048;52.220;5.160;2023-05-07T10:21:59;5.85;;;4.47;;
68229;SDS011;55048;52.220;5.160;2023-05-07T10:24:32;7.05;;;5.15;;
68229;SDS011;55048;52.220;5.160;2023-05-07T10:27:07;5.57;;;5.00;;
68229;SDS011;55048;52.220;5.160;2023-05-07T10:34:50;6.45;;;4.25;;
68229;SDS011;55048;52.220;5.160;2023-05-07T10:37:20;9.50;;;4.75;;
68229;SDS011;55048;52.220;5.160;2023-05-07T10:39:46;5.68;;;5.00;;
68229;SDS011;55048;52.220;5.160;2023-05-07T10:42:13;9.13;;;5.32;;
68229;SDS011;55048;52.220;5.160;2023-05-07T10:44:45;8.68;;;5.35;;
68229;SDS011;55048;52.220;5.160;2023-05-07T10:47:17;7.47;;;5.75;;
68229;SDS011;55048;52.220;5.160;2023-05-07T10:52:19;9.63;;;5.10;;
68229;SDS011;55048;52.220;5.160;2023-05-07T11:00:59;9.25;;;4.25;;
68229;SDS011;55048;52.220;5.160;2023-05-07T11:03:35;3.38;;;2.47;;
68229;SDS011;55048;52.220;5.160;2023-05-07T11:06:09;5.50;;;1.98;;
68229;SDS011;55048;52.220;5.160;2023-05-07T11:08:58;7.03;;;2.90;;
68229;SDS011;55048;52.220;5.160;2023-05-07T11:17:09;4.68;;;2.00;;
68229;SDS011;55048;52.220;5.160;2023-05-07T11:19:52;8.35;;;2.00;;
68229;SDS011;55048;52.220;5.160;2023-05-07T11:22:39;10.93;;;1.92;;
68229;SDS011;55048;52.220;5.160;2023-05-07T11:25:17;4.82;;;1.40;;
68229;SDS011;55048;52.220;5.160;2023-05-07T11:27:52;4.30;;;1.67;;
68229;SDS011;55048;52.220;5.160;2023-05-07T11:30:18;7.43;;;1.40;;
68229;SDS011;55048;52.220;5.160;2023-05-07T11:32:46;2.67;;;1.10;;
68229;SDS011;55048;52.220;5.160;2023-05-07T11:35:12;5.15;;;1.30;;
68229;SDS011;55048;52.220;5.160;2023-05-07T11:37:41;7.22;;;1.92;;
68229;SDS011;55048;52.220;5.160;2023-05-07T11:40:10;6.47;;;1.80;;
68229;SDS011;55048;52.220;5.160;2023-05-07T11:42:37;58.28;;;15.95;;
68229;SDS011;55048;52.220;5.160;2023-05-07T11:45:05;11.07;;;3.28;;
68229;SDS011;55048;52.220;5.160;2023-05-07T11:47:32;6.13;;;1.65;;
68229;SDS011;55048;52.220;5.160;2023-05-07T11:50:02;4.25;;;1.92;;
68229;SDS011;55048;52.220;5.160;2023-05-07T11:52:32;12.02;;;1.45;;
68229;SDS011;55048;52.220;5.160;2023-05-07T11:54:59;4.65;;;1.20;;
68229;SDS011;55048;52.220;5.160;2023-05-07T11:57:25;2.25;;;1.00;;
68229;SDS011;55048;52.220;5.160;2023-05-07T11:59:58;3.90;;;1.02;;
68229;SDS011;55048;52.220;5.160;2023-05-07T12:02:24;4.68;;;1.30;;
68229;SDS011;55048;52.220;5.160;2023-05-07T12:04:51;4.10;;;1.38;;
68229;SDS011;55048;52.220;5.160;2023-05-07T12:07:17;4.55;;;1.05;;
68229;SDS011;55048;52.220;5.160;2023-05-07T12:09:43;7.15;;;1.30;;
68229;SDS011;55048;52.220;5.160;2023-05-07T12:12:12;2.42;;;1.25;;
68229;SDS011;55048;52.220;5.160;2023-05-07T12:14:41;2.83;;;1.10;;
68229;SDS011;55048;52.220;5.160;2023-05-07T12:17:08;4.38;;;1.40;;
68229;SDS011;55048;52.220;5.160;2023-05-07T12:19:34;4.35;;;1.58;;
68229;SDS011;55048;52.220;5.160;2023-05-07T12:22:01;5.03;;;1.50;;
68229;SDS011;55048;52.220;5.160;2023-05-07T12:24:28;4.65;;;1.52;;
68229;SDS011;55048;52.220;5.160;2023-05-07T12:26:53;7.05;;;1.30;;
68229;SDS011;55048;52.220;5.160;2023-05-07T12:29:22;2.78;;;1.23;;
68229;SDS011;55048;52.220;5.160;2023-05-07T12:31:49;5.33;;;1.50;;
68229;SDS011;55048;52.220;5.160;2023-05-07T12:34:15;8.80;;;1.33;;
68229;SDS011;55048;52.220;5.160;2023-05-07T12:36:40;3.78;;;1.60;;
68229;SDS011;55048;52.220;5.160;2023-05-07T12:39:06;7.00;;;1.67;;
68229;SDS011;55048;52.220;5.160;2023-05-07T12:41:53;6.00;;;1.30;;
68229;SDS011;55048;52.220;5.160;2023-05-07T12:44:23;4.90;;;1.80;;
68229;SDS011;55048;52.220;5.160;2023-05-07T12:46:50;3.80;;;1.20;;
68229;SDS011;55048;52.220;5.160;2023-05-07T12:49:16;3.65;;;1.30;;
68229;SDS011;55048;52.220;5.160;2023-05-07T12:51:43;5.25;;;1.80;;
68229;SDS011;55048;52.220;5.160;2023-05-07T12:54:09;4.57;;;1.95;;
68229;SDS011;55048;52.220;5.160;2023-05-07T12:56:37;7.60;;;1.60;;
68229;SDS011;55048;52.220;5.160;2023-05-07T12:59:04;4.80;;;2.00;;
68229;SDS011;55048;52.220;5.160;2023-05-07T13:01:30;5.63;;;1.92;;
68229;SDS011;55048;52.220;5.160;2023-05-07T13:03:57;5.53;;;1.85;;
68229;SDS011;55048;52.220;5.160;2023-05-07T13:06:26;5.88;;;1.90;;
68229;SDS011;55048;52.220;5.160;2023-05-07T13:08:51;3.55;;;1.90;;
68229;SDS011;55048;52.220;5.160;2023-05-07T13:11:16;5.20;;;2.00;;
68229;SDS011;55048;52.220;5.160;2023-05-07T13:13:42;4.22;;;1.75;;
68229;SDS011;55048;52.220;5.160;2023-05-07T13:16:09;5.75;;;2.25;;
68229;SDS011;55048;52.220;5.160;2023-05-07T13:18:35;6.47;;;1.58;;
68229;SDS011;55048;52.220;5.160;2023-05-07T13:21:01;15.45;;;2.00;;
68229;SDS011;55048;52.220;5.160;2023-05-07T13:23:27;6.88;;;2.35;;
68229;SDS011;55048;52.220;5.160;2023-05-07T13:25:53;5.03;;;2.08;;
68229;SDS011;55048;52.220;5.160;2023-05-07T13:28:19;5.57;;;2.35;;
68229;SDS011;55048;52.220;5.160;2023-05-07T13:30:45;5.00;;;1.95;;
68229;SDS011;55048;52.220;5.160;2023-05-07T13:33:11;3.95;;;2.10;;
68229;SDS011;55048;52.220;5.160;2023-05-07T13:35:37;8.98;;;3.30;;
68229;SDS011;55048;52.220;5.160;2023-05-07T13:38:03;5.47;;;2.53;;
68229;SDS011;55048;52.220;5.160;2023-05-07T13:40:30;5.28;;;2.60;;
68229;SDS011;55048;52.220;5.160;2023-05-07T13:42:57;6.72;;;3.00;;
68229;SDS011;55048;52.220;5.160;2023-05-07T13:45:23;8.10;;;2.75;;
68229;SDS011;55048;52.220;5.160;2023-05-07T13:47:51;4.85;;;2.83;;
68229;SDS011;55048;52.220;5.160;2023-05-07T13:50:17;8.25;;;3.10;;
68229;SDS011;55048;52.220;5.160;2023-05-07T13:52:43;8.73;;;4.20;;
68229;SDS011;55048;52.220;5.160;2023-05-07T13:55:19;6.35;;;4.20;;
68229;SDS011;55048;52.220;5.160;2023-05-07T14:00:11;8.90;;;4.97;;
68229;SDS011;55048;52.220;5.160;2023-05-07T14:02:40;6.10;;;4.28;;
68229;SDS011;55048;52.220;5.160;2023-05-07T14:05:06;8.50;;;4.53;;
68229;SDS011;55048;52.220;5.160;2023-05-07T14:07:32;6.72;;;4.40;;
68229;SDS011;55048;52.220;5.160;2023-05-07T14:09:57;7.22;;;5.05;;
68229;SDS011;55048;52.220;5.160;2023-05-07T14:12:22;6.60;;;4.60;;
68229;SDS011;55048;52.220;5.160;2023-05-07T14:14:48;11.90;;;4.70;;
68229;SDS011;55048;52.220;5.160;2023-05-07T14:17:15;8.13;;;4.50;;
68229;SDS011;55048;52.220;5.160;2023-05-07T14:19:42;5.28;;;3.45;;
68229;SDS011;55048;52.220;5.160;2023-05-07T14:22:07;6.93;;;3.75;;
68229;SDS011;55048;52.220;5.160;2023-05-07T14:24:32;5.78;;;3.72;;
68229;SDS011;55048;52.220;5.160;2023-05-07T14:26:58;5.10;;;3.00;;
68229;SDS011;55048;52.220;5.160;2023-05-07T14:29:23;11.85;;;3.80;;
68229;SDS011;55048;52.220;5.160;2023-05-07T14:31:49;13.90;;;5.05;;
68229;SDS011;55048;52.220;5.160;2023-05-07T14:34:14;8.35;;;4.53;;
68229;SDS011;55048;52.220;5.160;2023-05-07T14:36:40;17.00;;;6.70;;
68229;SDS011;55048;52.220;5.160;2023-05-07T14:39:05;12.60;;;4.45;;
68229;SDS011;55048;52.220;5.160;2023-05-07T14:41:31;14.25;;;5.90;;
68229;SDS011;55048;52.220;5.160;2023-05-07T14:43:58;11.95;;;4.75;;
68229;SDS011;55048;52.220;5.160;2023-05-07T14:46:24;11.77;;;4.57;;
68229;SDS011;55048;52.220;5.160;2023-05-07T14:48:49;13.30;;;5.70;;
68229;SDS011;55048;52.220;5.160;2023-05-07T14:51:15;19.52;;;5.25;;
68229;SDS011;55048;52.220;5.160;2023-05-07T14:53:40;10.73;;;3.72;;
68229;SDS011;55048;52.220;5.160;2023-05-07T14:56:06;11.98;;;4.43;;
68229;SDS011;55048;52.220;5.160;2023-05-07T14:58:32;15.77;;;6.97;;
68229;SDS011;55048;52.220;5.160;2023-05-07T15:00:58;31.55;;;8.45;;